createdAt,value
2022-09-30T00:01:53.249Z,6.07
2022-09-30T00:04:24.482Z,5.90
2022-09-30T00:06:54.865Z,6.30
2022-09-30T00:09:24.739Z,10.95
2022-09-30T00:11:56.124Z,5.30
2022-09-30T00:14:25.271Z,4.80
2022-09-30T00:16:54.746Z,6.82
2022-09-30T00:19:23.650Z,5.90
2022-09-30T00:21:52.296Z,6.47
2022-09-30T00:24:21.063Z,4.72
2022-09-30T00:26:50.659Z,6.63
2022-09-30T00:29:21.094Z,5.13
2022-09-30T00:31:49.772Z,11.57
2022-09-30T00:34:22.595Z,7.23
2022-09-30T00:36:52.896Z,9.77
2022-09-30T00:39:23.519Z,9.15
2022-09-30T00:41:53.967Z,13.15
2022-09-30T00:44:41.164Z,11.38
2022-09-30T00:47:22.511Z,13.60
2022-09-30T00:49:51.281Z,11.07
2022-09-30T00:52:19.856Z,16.70
2022-09-30T00:54:48.909Z,17.52
2022-09-30T00:57:18.040Z,17.23
2022-09-30T00:59:48.254Z,16.73
2022-09-30T01:02:16.563Z,17.35
2022-09-30T01:04:45.391Z,19.90
2022-09-30T01:07:14.468Z,17.98
2022-09-30T01:09:44.224Z,17.73
2022-09-30T01:12:17.556Z,19.42
2022-09-30T01:14:51.110Z,18.58
2022-09-30T01:17:22.356Z,16.90
2022-09-30T01:19:52.958Z,15.65
2022-09-30T01:22:33.523Z,13.23
2022-09-30T01:25:33.646Z,16.10
2022-09-30T01:28:20.293Z,16.73
2022-09-30T01:30:48.491Z,19.85
2022-09-30T01:33:23.754Z,18.17
2022-09-30T01:35:59.252Z,14.90
2022-09-30T01:38:46.152Z,18.20
2022-09-30T01:41:20.157Z,14.23
2022-09-30T01:44:07.043Z,16.25
2022-09-30T01:46:44.021Z,11.40
2022-09-30T01:49:21.097Z,12.57
2022-09-30T01:52:07.524Z,16.75
2022-09-30T01:54:46.227Z,15.68
2022-09-30T01:57:18.031Z,15.55
2022-09-30T01:59:52.323Z,14.95
2022-09-30T02:02:22.772Z,14.32
2022-09-30T02:05:11.655Z,12.15
2022-09-30T02:07:45.480Z,14.70
2022-09-30T02:10:17.522Z,13.25
2022-09-30T02:12:52.921Z,16.75
2022-09-30T02:15:26.074Z,16.02
2022-09-30T02:18:00.714Z,13.75
2022-09-30T02:20:36.408Z,13.30
2022-09-30T02:23:15.632Z,16.50
2022-09-30T02:25:57.153Z,14.30
2022-09-30T02:28:27.795Z,19.65
2022-09-30T02:30:59.361Z,17.75
2022-09-30T02:33:34.249Z,16.88
2022-09-30T02:36:07.329Z,14.43
2022-09-30T02:38:43.824Z,16.75
2022-09-30T02:41:18.389Z,17.75
2022-09-30T02:43:47.561Z,18.60
2022-09-30T02:46:15.890Z,14.73
2022-09-30T02:48:52.116Z,18.42
2022-09-30T02:51:38.704Z,17.65
2022-09-30T02:54:15.896Z,14.50
2022-09-30T02:56:57.689Z,18.38
2022-09-30T02:59:27.361Z,17.48
2022-09-30T03:01:56.202Z,17.15
2022-09-30T03:04:26.477Z,15.10
2022-09-30T03:06:56.319Z,18.58
2022-09-30T03:09:26.274Z,22.30
2022-09-30T03:12:05.887Z,16.50
2022-09-30T03:14:38.560Z,15.85
2022-09-30T03:17:09.794Z,16.48
2022-09-30T03:20:13.805Z,21.38
2022-09-30T03:22:48.543Z,16.90
2022-09-30T03:25:24.874Z,18.38
2022-09-30T03:28:00.127Z,16.52
2022-09-30T03:30:28.561Z,17.42
2022-09-30T03:32:56.830Z,21.55
2022-09-30T03:35:44.102Z,19.77
2022-09-30T03:38:15.697Z,20.42
2022-09-30T03:41:03.217Z,19.98
2022-09-30T03:43:33.951Z,20.58
2022-09-30T03:46:10.888Z,20.17
2022-09-30T03:48:40.541Z,14.35
2022-09-30T03:51:09.572Z,14.60
2022-09-30T03:53:42.122Z,13.95
2022-09-30T03:56:11.508Z,14.80
2022-09-30T03:58:44.324Z,17.75
2022-09-30T04:01:19.176Z,18.67
2022-09-30T04:03:53.115Z,15.02
2022-09-30T04:06:24.630Z,16.60
2022-09-30T04:08:54.217Z,14.38
2022-09-30T04:11:23.589Z,17.55
2022-09-30T04:13:52.878Z,18.48
2022-09-30T04:16:23.311Z,18.70
2022-09-30T04:18:53.652Z,15.25
2022-09-30T04:21:23.841Z,15.68
2022-09-30T04:24:00.968Z,19.05
2022-09-30T04:26:32.889Z,12.27
2022-09-30T04:29:02.606Z,18.17
2022-09-30T04:31:31.571Z,15.27
2022-09-30T04:34:00.674Z,12.63
2022-09-30T04:36:32.459Z,15.45
2022-09-30T04:39:00.785Z,17.83
2022-09-30T04:41:34.136Z,12.80
2022-09-30T04:44:06.709Z,19.65
2022-09-30T04:46:38.405Z,14.27
2022-09-30T04:49:09.366Z,17.65
2022-09-30T04:51:43.863Z,17.13
2022-09-30T04:54:16.548Z,14.25
2022-09-30T04:56:47.812Z,12.93
2022-09-30T04:59:17.501Z,15.43
2022-09-30T05:01:46.104Z,14.55
2022-09-30T05:04:16.207Z,15.85
2022-09-30T05:06:44.781Z,17.50
2022-09-30T05:09:13.530Z,21.00
2022-09-30T05:11:43.219Z,16.77
2022-09-30T05:14:12.346Z,18.60
2022-09-30T05:16:41.994Z,20.75
2022-09-30T05:19:12.682Z,14.07
2022-09-30T05:21:44.967Z,22.73
2022-09-30T05:24:13.442Z,19.10
2022-09-30T05:26:41.740Z,13.90
2022-09-30T05:29:12.140Z,13.48
2022-09-30T05:31:42.593Z,14.98
2022-09-30T05:34:11.233Z,20.08
2022-09-30T05:36:39.861Z,23.27
2022-09-30T05:39:08.998Z,14.30
2022-09-30T05:41:37.645Z,19.08
2022-09-30T05:44:09.225Z,12.90
2022-09-30T05:46:41.230Z,19.42
2022-09-30T05:49:11.348Z,25.60
2022-09-30T05:51:40.585Z,13.95
2022-09-30T05:54:10.414Z,17.73
2022-09-30T05:56:39.265Z,18.50
2022-09-30T05:59:08.961Z,17.92
2022-09-30T06:01:37.937Z,17.83
2022-09-30T06:04:06.788Z,18.92
2022-09-30T06:06:36.077Z,23.08
2022-09-30T06:09:04.476Z,17.65
2022-09-30T06:11:34.957Z,35.42
2022-09-30T06:14:04.829Z,37.05
2022-09-30T06:16:35.661Z,83.32
2022-09-30T06:19:06.169Z,31.05
2022-09-30T06:21:39.943Z,19.13
2022-09-30T06:24:13.074Z,18.65
2022-09-30T06:26:46.636Z,16.70
2022-09-30T06:29:17.715Z,22.55
2022-09-30T06:31:46.146Z,15.70
2022-09-30T06:34:15.011Z,20.30
2022-09-30T06:36:45.146Z,18.95
2022-09-30T06:39:13.956Z,16.67
2022-09-30T06:41:44.528Z,16.42
2022-09-30T06:44:21.404Z,19.95
2022-09-30T06:46:54.003Z,17.08
2022-09-30T06:49:23.622Z,18.75
2022-09-30T06:51:52.585Z,20.65
2022-09-30T06:54:21.871Z,20.50
2022-09-30T06:56:52.947Z,19.45
2022-09-30T06:59:23.252Z,20.88
2022-09-30T07:01:53.163Z,19.65
2022-09-30T07:04:21.834Z,30.52
2022-09-30T07:06:50.536Z,22.90
2022-09-30T07:09:19.401Z,19.98
2022-09-30T07:11:51.448Z,20.23
2022-09-30T07:14:24.038Z,18.75
2022-09-30T07:16:53.995Z,14.60
2022-09-30T07:19:23.757Z,18.45
2022-09-30T07:21:53.411Z,18.45
2022-09-30T07:24:22.874Z,25.17
2022-09-30T07:26:52.229Z,22.35
2022-09-30T07:29:20.568Z,21.98
2022-09-30T07:31:48.921Z,21.73
2022-09-30T07:34:17.297Z,18.60
2022-09-30T07:36:46.309Z,24.42
2022-09-30T07:39:15.094Z,18.55
2022-09-30T07:41:45.161Z,27.95
2022-09-30T07:44:15.174Z,27.98
2022-09-30T07:46:44.701Z,21.92
2022-09-30T07:49:15.424Z,18.23
2022-09-30T07:51:45.450Z,21.75
2022-09-30T07:54:16.701Z,29.55
2022-09-30T07:59:39.074Z,25.17
2022-09-30T08:02:12.083Z,24.35
2022-09-30T08:04:43.899Z,29.10
2022-09-30T08:07:15.696Z,23.35
2022-09-30T08:09:44.255Z,24.40
2022-09-30T08:12:12.577Z,25.15
2022-09-30T08:14:41.983Z,27.63
2022-09-30T08:17:10.588Z,24.55
2022-09-30T08:19:43.905Z,24.38
2022-09-30T08:22:13.922Z,30.17
2022-09-30T08:24:43.698Z,27.55
2022-09-30T08:27:11.948Z,27.45
2022-09-30T08:29:54.394Z,36.00
2022-09-30T08:32:25.407Z,38.72
2022-09-30T08:34:54.066Z,34.65
2022-09-30T08:37:24.798Z,27.20
2022-09-30T08:39:54.673Z,31.98
2022-09-30T08:42:47.085Z,35.17
2022-09-30T08:45:20.973Z,29.55
2022-09-30T08:47:49.138Z,42.50
2022-09-30T08:50:36.765Z,84.13
2022-09-30T08:53:09.326Z,39.13
2022-09-30T08:55:44.630Z,37.03
2022-09-30T08:58:18.419Z,36.88
2022-09-30T09:00:47.757Z,27.02
2022-09-30T09:03:23.848Z,34.53
2022-09-30T09:06:05.156Z,33.80
2022-09-30T09:08:39.360Z,28.90
2022-09-30T09:11:11.293Z,26.42
2022-09-30T09:13:49.192Z,23.58
2022-09-30T09:16:32.472Z,23.13
2022-09-30T09:19:03.499Z,28.63
2022-09-30T09:21:37.893Z,27.75
2022-09-30T09:24:07.359Z,29.42
2022-09-30T09:26:38.492Z,27.48
2022-09-30T09:29:25.842Z,31.35
2022-09-30T09:31:55.383Z,21.13
2022-09-30T09:34:26.709Z,32.42
2022-09-30T09:37:10.453Z,30.75
2022-09-30T09:39:38.797Z,26.77
2022-09-30T09:42:07.388Z,27.30
2022-09-30T09:44:35.516Z,31.92
2022-09-30T09:47:06.011Z,32.92
2022-09-30T09:49:35.185Z,32.88
2022-09-30T09:52:12.406Z,24.40
2022-09-30T09:54:41.712Z,30.90
2022-09-30T09:57:14.821Z,25.25
2022-09-30T10:02:46.596Z,28.42
2022-09-30T10:05:26.247Z,25.40
2022-09-30T10:08:09.781Z,23.33
2022-09-30T10:10:47.014Z,30.85
2022-09-30T10:13:17.208Z,20.17
2022-09-30T10:15:46.901Z,27.05
2022-09-30T10:18:20.313Z,23.45
2022-09-30T10:20:53.159Z,26.10
2022-09-30T10:23:22.304Z,18.13
2022-09-30T10:25:59.102Z,20.20
2022-09-30T10:28:29.694Z,25.83
2022-09-30T10:31:00.992Z,19.67
2022-09-30T10:33:31.944Z,28.35
2022-09-30T10:36:08.743Z,18.27
2022-09-30T10:41:12.137Z,20.67
2022-09-30T10:43:45.205Z,17.55
2022-09-30T10:46:26.471Z,20.83
2022-09-30T10:48:57.358Z,16.77
2022-09-30T10:51:36.391Z,22.27
2022-09-30T10:54:06.524Z,11.75
2022-09-30T10:56:43.427Z,28.13
2022-09-30T10:59:20.508Z,17.20
2022-09-30T11:02:09.878Z,20.08
2022-09-30T11:04:40.408Z,20.63
2022-09-30T11:07:18.194Z,17.98
2022-09-30T11:10:12.706Z,22.98
2022-09-30T11:12:48.118Z,17.25
2022-09-30T11:15:19.736Z,19.08
2022-09-30T11:18:03.065Z,21.13
2022-09-30T11:20:35.327Z,17.33
2022-09-30T11:23:12.209Z,13.43
2022-09-30T11:25:49.953Z,13.90
2022-09-30T11:28:24.395Z,17.70
2022-09-30T11:30:52.855Z,16.80
2022-09-30T11:33:21.107Z,32.88
2022-09-30T11:36:07.445Z,15.13
2022-09-30T11:38:54.250Z,12.95
2022-09-30T11:41:33.564Z,10.43
2022-09-30T11:44:13.464Z,14.85
2022-09-30T11:46:41.521Z,9.98
2022-09-30T11:49:21.209Z,13.50
2022-09-30T11:51:49.403Z,15.63
2022-09-30T11:54:26.965Z,12.40
2022-09-30T11:57:04.282Z,17.00
2022-09-30T11:59:37.445Z,11.80
2022-09-30T12:02:11.059Z,12.23
2022-09-30T12:04:41.940Z,16.23
2022-09-30T12:07:09.979Z,11.13
2022-09-30T12:09:41.927Z,14.13
2022-09-30T12:12:16.839Z,10.50
2022-09-30T12:14:47.435Z,12.38
2022-09-30T12:17:36.204Z,10.80
2022-09-30T12:20:26.132Z,12.65
2022-09-30T12:22:58.958Z,17.63
2022-09-30T12:25:33.260Z,10.25
2022-09-30T12:28:23.281Z,18.50
2022-09-30T12:30:57.168Z,8.65
2022-09-30T12:33:43.866Z,10.67
2022-09-30T12:36:14.928Z,14.00
2022-09-30T12:38:45.647Z,15.05
2022-09-30T12:41:13.881Z,11.07
2022-09-30T12:43:45.137Z,18.23
2022-09-30T12:46:19.955Z,8.93
2022-09-30T12:49:09.714Z,6.63
2022-09-30T12:51:42.814Z,7.88
2022-09-30T12:54:15.979Z,7.23
2022-09-30T12:59:14.324Z,5.22
2022-09-30T13:01:43.596Z,9.50
2022-09-30T13:04:29.976Z,12.02
2022-09-30T13:06:58.241Z,9.73
2022-09-30T13:09:29.297Z,9.35
2022-09-30T13:11:57.412Z,8.30
2022-09-30T13:14:43.263Z,9.90
2022-09-30T13:17:11.337Z,5.97
2022-09-30T13:19:42.914Z,5.07
2022-09-30T13:22:20.163Z,12.90
2022-09-30T13:24:54.086Z,5.22
2022-09-30T13:29:50.330Z,6.75
2022-09-30T13:32:32.643Z,8.90
2022-09-30T13:35:00.785Z,17.45
2022-09-30T13:37:35.443Z,11.00
2022-09-30T13:40:04.856Z,5.30
2022-09-30T13:42:46.571Z,6.10
2022-09-30T13:45:20.573Z,8.32
2022-09-30T13:47:52.767Z,7.75
2022-09-30T13:50:32.314Z,5.80
2022-09-30T13:53:03.138Z,6.40
2022-09-30T13:55:36.966Z,5.80
2022-09-30T13:58:08.116Z,4.40
2022-09-30T14:00:52.385Z,3.93
2022-09-30T14:03:40.804Z,3.97
2022-09-30T14:06:15.556Z,7.75
2022-09-30T14:08:43.404Z,6.68
2022-09-30T14:11:23.297Z,4.28
2022-09-30T14:13:54.535Z,5.38
2022-09-30T14:16:36.466Z,7.60
2022-09-30T14:19:07.166Z,8.48
2022-09-30T14:21:40.634Z,4.95
2022-09-30T14:24:12.085Z,14.13
2022-09-30T14:26:54.754Z,7.15
2022-09-30T14:29:26.059Z,3.90
2022-09-30T14:31:55.325Z,7.13
2022-09-30T14:34:25.511Z,6.10
2022-09-30T14:36:55.387Z,5.90
2022-09-30T14:39:28.134Z,8.23
2022-09-30T14:41:58.224Z,5.40
2022-09-30T14:44:29.315Z,3.97
2022-09-30T14:47:01.373Z,4.10
2022-09-30T14:49:34.695Z,4.65
2022-09-30T14:52:04.458Z,4.63
2022-09-30T14:54:34.657Z,5.97
2022-09-30T14:57:16.544Z,5.18
2022-09-30T14:59:46.184Z,4.30
2022-09-30T15:02:18.423Z,4.70
2022-09-30T15:05:01.565Z,5.22
2022-09-30T15:07:35.195Z,4.47
2022-09-30T15:10:05.864Z,7.65
2022-09-30T15:12:43.232Z,6.25
2022-09-30T15:15:25.839Z,2.92
2022-09-30T15:17:56.124Z,4.57
2022-09-30T15:20:31.168Z,3.50
2022-09-30T15:23:03.173Z,6.53
2022-09-30T15:25:33.737Z,4.78
2022-09-30T15:28:05.216Z,3.45
2022-09-30T15:30:37.538Z,4.15
2022-09-30T15:33:24.645Z,6.30
2022-09-30T15:36:01.493Z,3.40
2022-09-30T15:38:31.929Z,5.15
2022-09-30T15:41:06.068Z,4.00
2022-09-30T15:43:35.778Z,2.85
2022-09-30T15:46:17.234Z,6.57
2022-09-30T15:48:46.910Z,7.50
2022-09-30T15:51:24.723Z,8.77
2022-09-30T15:53:53.024Z,2.00
2022-09-30T15:56:30.691Z,2.53
2022-09-30T15:59:08.056Z,1.90
2022-09-30T16:01:37.764Z,1.67
2022-09-30T16:04:15.627Z,5.88
2022-09-30T16:06:47.718Z,2.10
2022-09-30T16:09:18.870Z,7.55
2022-09-30T16:11:54.059Z,2.08
2022-09-30T16:14:27.866Z,2.83
2022-09-30T16:16:58.647Z,2.00
2022-09-30T16:19:28.644Z,2.33
2022-09-30T16:21:57.594Z,1.75
2022-09-30T16:24:27.381Z,1.45
2022-09-30T16:26:59.038Z,1.80
2022-09-30T16:29:27.832Z,1.52
2022-09-30T16:31:57.186Z,5.32
2022-09-30T16:34:27.134Z,1.50
2022-09-30T16:37:14.749Z,2.10
2022-09-30T16:39:44.541Z,1.80
2022-09-30T16:42:14.023Z,2.67
2022-09-30T16:44:45.383Z,1.27
2022-09-30T16:47:19.208Z,3.42
2022-09-30T16:49:51.027Z,7.43
2022-09-30T16:52:19.682Z,31.55
2022-09-30T16:54:47.820Z,2.70
2022-09-30T16:57:17.293Z,1.80
2022-09-30T16:59:46.481Z,2.97
2022-09-30T17:02:15.735Z,1.88
2022-09-30T17:04:45.398Z,2.63
2022-09-30T17:07:14.455Z,1.30
2022-09-30T17:09:44.255Z,1.80
2022-09-30T17:12:13.195Z,3.17
2022-09-30T17:14:43.704Z,24.92
2022-09-30T17:17:14.003Z,4.80
2022-09-30T17:19:42.504Z,2.10
2022-09-30T17:22:10.921Z,5.85
2022-09-30T17:24:39.275Z,10.60
2022-09-30T17:27:09.180Z,16.35
2022-09-30T17:29:41.755Z,5.78
2022-09-30T17:32:11.218Z,8.68
2022-09-30T17:34:41.309Z,7.20
2022-09-30T17:37:11.163Z,1.17
2022-09-30T17:39:40.533Z,4.13
2022-09-30T17:42:36.288Z,2.88
2022-09-30T17:45:05.549Z,1.75
2022-09-30T17:47:39.525Z,1.15
2022-09-30T17:50:08.473Z,3.83
2022-09-30T17:52:39.046Z,16.92
2022-09-30T17:55:09.252Z,28.10
2022-09-30T17:57:40.496Z,7.25
2022-09-30T18:00:12.212Z,3.45
2022-09-30T18:02:59.911Z,1.80
2022-09-30T18:05:30.027Z,1.83
2022-09-30T18:07:59.162Z,3.20
2022-09-30T18:10:38.983Z,2.70
2022-09-30T18:13:19.888Z,1.90
2022-09-30T18:15:51.533Z,4.55
2022-09-30T18:18:21.468Z,2.08
2022-09-30T18:20:51.968Z,6.32
2022-09-30T18:23:20.589Z,9.38
2022-09-30T18:25:49.612Z,2.65
2022-09-30T18:28:18.452Z,2.75
2022-09-30T18:30:49.664Z,6.72
2022-09-30T18:33:22.307Z,2.80
2022-09-30T18:35:52.853Z,2.05
2022-09-30T18:38:22.102Z,3.28
2022-09-30T18:40:53.289Z,5.68
2022-09-30T18:43:23.145Z,7.22
2022-09-30T18:45:57.176Z,5.15
2022-09-30T18:48:26.378Z,6.63
2022-09-30T18:50:56.262Z,12.38
2022-09-30T18:53:25.111Z,19.83
2022-09-30T18:55:55.381Z,5.55
2022-09-30T18:58:24.314Z,5.65
2022-09-30T19:00:54.140Z,3.50
2022-09-30T19:03:29.204Z,3.22
2022-09-30T19:06:01.433Z,2.17
2022-09-30T19:08:29.930Z,5.00
2022-09-30T19:10:58.394Z,3.45
2022-09-30T19:13:28.663Z,3.15
2022-09-30T19:16:05.859Z,3.83
2022-09-30T19:18:47.172Z,3.88
2022-09-30T19:21:20.175Z,3.63
2022-09-30T19:23:49.274Z,5.82
2022-09-30T19:26:19.400Z,3.30
2022-09-30T19:28:50.198Z,6.82
2022-09-30T19:31:20.711Z,3.70
2022-09-30T19:33:56.743Z,4.63
2022-09-30T19:36:27.649Z,6.75
2022-09-30T19:39:09.915Z,20.77
2022-09-30T19:44:11.298Z,8.85
2022-09-30T19:46:39.951Z,3.40
2022-09-30T19:49:10.108Z,3.78
2022-09-30T19:51:38.610Z,5.43
2022-09-30T19:54:07.852Z,9.20
2022-09-30T19:56:40.964Z,9.13
2022-09-30T19:59:09.887Z,5.82
2022-09-30T20:01:38.982Z,4.25
2022-09-30T20:04:09.238Z,3.85
2022-09-30T20:06:37.855Z,4.47
2022-09-30T20:09:08.458Z,4.57
2022-09-30T20:11:40.585Z,4.20
2022-09-30T20:14:26.778Z,5.97
2022-09-30T20:16:57.721Z,5.15
2022-09-30T20:19:26.144Z,4.03
2022-09-30T20:21:56.778Z,3.58
2022-09-30T20:24:25.906Z,3.83
2022-09-30T20:26:56.649Z,3.38
2022-09-30T20:29:25.231Z,5.43
2022-09-30T20:31:55.366Z,3.97
2022-09-30T20:34:24.310Z,4.63
2022-09-30T20:36:54.779Z,2.85
2022-09-30T20:39:24.680Z,3.60
2022-09-30T20:41:55.798Z,2.95
2022-09-30T20:44:24.580Z,3.42
2022-09-30T20:46:54.417Z,4.32
2022-09-30T20:49:24.590Z,4.35
2022-09-30T20:51:55.046Z,4.90
2022-09-30T20:54:24.977Z,4.55
2022-09-30T20:57:08.901Z,4.18
2022-09-30T20:59:37.734Z,4.60
2022-09-30T21:02:07.037Z,2.97
2022-09-30T21:04:40.939Z,3.40
2022-09-30T21:07:10.768Z,3.50
2022-09-30T21:09:41.565Z,3.05
2022-09-30T21:12:14.647Z,3.53
2022-09-30T21:14:44.742Z,2.97
2022-09-30T21:17:14.769Z,5.70
2022-09-30T21:19:43.613Z,3.35
2022-09-30T21:22:13.422Z,2.72
2022-09-30T21:24:45.272Z,3.65
2022-09-30T21:27:14.924Z,5.88
2022-09-30T21:29:45.448Z,2.33
2022-09-30T21:32:15.333Z,2.85
2022-09-30T21:34:44.128Z,7.00
2022-09-30T21:37:14.149Z,3.15
2022-09-30T21:39:48.021Z,5.03
2022-09-30T21:42:18.888Z,9.27
2022-09-30T21:44:48.912Z,3.20
2022-09-30T21:47:20.764Z,4.28
2022-09-30T21:49:49.633Z,18.77
2022-09-30T21:52:17.745Z,3.75
2022-09-30T21:54:46.089Z,4.38
2022-09-30T21:57:16.289Z,5.10
2022-09-30T21:59:49.750Z,2.92
2022-09-30T22:02:20.473Z,5.55
2022-09-30T22:04:55.831Z,6.78
2022-09-30T22:07:38.028Z,2.92
2022-09-30T22:10:19.110Z,4.93
2022-09-30T22:13:02.617Z,4.85
2022-09-30T22:15:35.379Z,4.32
2022-09-30T22:18:12.301Z,3.25
2022-09-30T22:20:42.293Z,6.15
2022-09-30T22:23:11.559Z,3.85
2022-09-30T22:25:40.392Z,2.97
2022-09-30T22:28:08.748Z,4.97
2022-09-30T22:30:38.911Z,5.03
2022-09-30T22:33:32.065Z,4.78
2022-09-30T22:36:18.509Z,5.80
2022-09-30T22:38:48.470Z,10.00
2022-09-30T22:41:17.692Z,7.50
2022-09-30T22:43:46.683Z,4.50
2022-09-30T22:46:17.120Z,3.70
2022-09-30T22:48:49.528Z,5.38
2022-09-30T22:51:19.583Z,5.40
2022-09-30T22:53:48.872Z,5.05
2022-09-30T22:56:19.281Z,4.50
2022-09-30T22:59:00.881Z,4.05
2022-09-30T23:01:37.793Z,9.10
2022-09-30T23:04:10.609Z,4.78
2022-09-30T23:06:52.048Z,5.03
2022-09-30T23:09:22.893Z,8.32
2022-09-30T23:12:03.130Z,6.95
2022-09-30T23:14:45.108Z,4.70
2022-09-30T23:17:14.339Z,5.38
2022-09-30T23:19:43.473Z,4.47
2022-09-30T23:22:11.948Z,4.45
2022-09-30T23:24:41.001Z,4.72
2022-09-30T23:27:09.615Z,6.72
2022-09-30T23:29:38.221Z,7.60
2022-09-30T23:32:07.789Z,5.63
2022-09-30T23:34:37.763Z,4.43
2022-09-30T23:37:06.777Z,4.88
2022-09-30T23:39:35.132Z,4.20
2022-09-30T23:42:04.693Z,4.65
2022-09-30T23:44:36.026Z,6.93
2022-09-30T23:47:19.111Z,5.70
2022-09-30T23:49:48.803Z,4.43
2022-09-30T23:52:18.424Z,6.90
2022-09-30T23:54:53.653Z,7.15
2022-09-30T23:57:25.720Z,7.70
